createdAt,value
2022-10-11T00:00:56.523Z,14.00
2022-10-11T00:03:24.525Z,14.05
2022-10-11T00:05:53.901Z,14.01
2022-10-11T00:08:23.231Z,14.00
2022-10-11T00:10:58.075Z,13.98
2022-10-11T00:13:26.336Z,13.95
2022-10-11T00:15:55.264Z,13.90
2022-10-11T00:18:23.541Z,13.85
2022-10-11T00:20:51.517Z,13.85
2022-10-11T00:23:19.512Z,13.92
2022-10-11T00:25:57.965Z,13.87
2022-10-11T00:28:25.993Z,13.88
2022-10-11T00:30:53.949Z,13.83
2022-10-11T00:33:22.123Z,13.80
2022-10-11T00:35:50.392Z,13.83
2022-10-11T00:38:19.231Z,13.79
2022-10-11T00:40:48.613Z,13.76
2022-10-11T00:43:18.616Z,13.77
2022-10-11T00:46:29.809Z,13.80
2022-10-11T00:49:04.071Z,13.66
2022-10-11T00:51:40.496Z,13.63
2022-10-11T00:54:12.811Z,13.68
2022-10-11T00:56:44.918Z,13.66
2022-10-11T00:59:17.681Z,13.59
2022-10-11T01:01:45.878Z,13.59
2022-10-11T01:04:13.985Z,13.53
2022-10-11T01:06:43.083Z,13.41
2022-10-11T01:09:11.910Z,13.47
2022-10-11T01:11:43.567Z,13.35
2022-10-11T01:14:33.404Z,13.41
2022-10-11T01:17:10.299Z,13.40
2022-10-11T01:19:53.868Z,13.34
2022-10-11T01:22:38.896Z,13.33
2022-10-11T01:25:19.751Z,13.30
2022-10-11T01:28:03.850Z,13.26
2022-10-11T01:30:35.368Z,13.21
2022-10-11T01:33:14.213Z,13.06
2022-10-11T01:35:50.596Z,13.04
2022-10-11T01:38:25.102Z,13.08
2022-10-11T01:40:57.580Z,13.10
2022-10-11T01:43:27.363Z,13.07
2022-10-11T01:45:59.322Z,13.02
2022-10-11T01:48:27.312Z,13.03
2022-10-11T01:50:58.657Z,13.03
2022-10-11T01:53:53.070Z,13.05
2022-10-11T01:56:37.029Z,12.99
2022-10-11T01:59:21.085Z,13.03
2022-10-11T02:01:59.618Z,13.01
2022-10-11T02:04:34.705Z,13.05
2022-10-11T02:07:11.631Z,12.99
2022-10-11T02:09:46.606Z,12.99
2022-10-11T02:12:24.767Z,12.94
2022-10-11T02:14:57.097Z,12.85
2022-10-11T02:17:32.911Z,12.77
2022-10-11T02:20:05.047Z,12.75
2022-10-11T02:22:36.710Z,12.73
2022-10-11T02:25:09.864Z,12.75
2022-10-11T02:27:41.790Z,12.79
2022-10-11T02:30:11.236Z,12.78
2022-10-11T02:32:44.941Z,12.73
2022-10-11T02:35:13.626Z,12.78
2022-10-11T02:37:48.577Z,12.77
2022-10-11T02:40:22.310Z,12.70
2022-10-11T02:42:58.761Z,12.78
2022-10-11T02:45:31.653Z,12.78
2022-10-11T02:48:02.129Z,12.74
2022-10-11T02:50:30.204Z,12.73
2022-10-11T02:52:58.109Z,12.73
2022-10-11T02:55:26.071Z,12.77
2022-10-11T02:57:53.931Z,12.81
2022-10-11T03:00:22.151Z,12.79
2022-10-11T03:02:50.225Z,12.87
2022-10-11T03:05:19.679Z,12.83
2022-10-11T03:07:47.575Z,12.81
2022-10-11T03:10:15.518Z,12.75
2022-10-11T03:12:43.478Z,12.72
2022-10-11T03:15:12.047Z,12.70
2022-10-11T03:17:40.115Z,12.81
2022-10-11T03:20:09.202Z,12.85
2022-10-11T03:22:38.685Z,12.84
2022-10-11T03:25:07.085Z,12.81
2022-10-11T03:27:35.082Z,12.70
2022-10-11T03:30:03.765Z,12.74
2022-10-11T03:32:31.725Z,12.73
2022-10-11T03:34:59.601Z,12.69
2022-10-11T03:37:27.580Z,12.74
2022-10-11T03:39:56.857Z,12.79
2022-10-11T03:42:24.790Z,12.78
2022-10-11T03:44:52.785Z,12.77
2022-10-11T03:47:20.883Z,12.77
2022-10-11T03:49:48.832Z,12.77
2022-10-11T03:52:16.740Z,12.71
2022-10-11T03:54:44.860Z,12.74
2022-10-11T03:57:14.146Z,12.82
2022-10-11T03:59:42.129Z,12.78
2022-10-11T04:02:10.148Z,12.84
2022-10-11T04:04:41.124Z,12.81
2022-10-11T04:07:09.427Z,12.74
2022-10-11T04:09:37.574Z,12.74
2022-10-11T04:12:05.844Z,12.80
2022-10-11T04:14:42.514Z,12.77
2022-10-11T04:17:10.466Z,12.82
2022-10-11T04:19:38.460Z,12.82
2022-10-11T04:22:06.963Z,12.73
2022-10-11T04:24:34.892Z,12.72
2022-10-11T04:27:02.986Z,12.83
2022-10-11T04:29:32.792Z,12.81
2022-10-11T04:32:02.444Z,12.86
2022-10-11T04:34:30.333Z,12.86
2022-10-11T04:36:58.407Z,12.86
2022-10-11T04:39:26.290Z,12.84
2022-10-11T04:41:54.191Z,12.79
2022-10-11T04:44:22.387Z,12.79
2022-10-11T04:46:50.211Z,12.82
2022-10-11T04:49:21.276Z,12.78
2022-10-11T04:51:49.162Z,12.80
2022-10-11T04:54:17.240Z,12.77
2022-10-11T04:56:45.226Z,12.79
2022-10-11T04:59:13.127Z,12.84
2022-10-11T05:01:41.091Z,12.89
2022-10-11T05:04:09.331Z,12.95
2022-10-11T05:06:38.687Z,13.02
2022-10-11T05:09:06.624Z,13.04
2022-10-11T05:11:34.549Z,13.12
2022-10-11T05:14:02.500Z,12.99
2022-10-11T05:16:30.558Z,12.96
2022-10-11T05:18:58.487Z,13.00
2022-10-11T05:21:28.554Z,13.04
2022-10-11T05:23:58.865Z,13.00
2022-10-11T05:26:28.355Z,13.04
2022-10-11T05:28:56.924Z,13.03
2022-10-11T05:31:25.227Z,13.09
2022-10-11T05:33:53.196Z,13.05
2022-10-11T05:36:21.290Z,13.01
2022-10-11T05:38:49.365Z,13.04
2022-10-11T05:41:18.967Z,12.98
2022-10-11T05:43:47.477Z,12.97
2022-10-11T05:46:15.560Z,12.90
2022-10-11T05:48:43.562Z,13.11
2022-10-11T05:51:13.027Z,13.16
2022-10-11T05:53:41.297Z,13.27
2022-10-11T05:56:20.711Z,13.29
2022-10-11T05:58:51.084Z,13.34
2022-10-11T06:01:21.371Z,13.48
2022-10-11T06:03:49.702Z,13.48
2022-10-11T06:06:17.926Z,13.49
2022-10-11T06:08:46.721Z,13.49
2022-10-11T06:11:17.325Z,13.62
2022-10-11T06:13:46.755Z,13.64
2022-10-11T06:16:14.795Z,13.57
2022-10-11T06:18:42.992Z,13.59
2022-10-11T06:21:11.037Z,13.66
2022-10-11T06:23:39.142Z,13.79
2022-10-11T06:26:09.793Z,13.79
2022-10-11T06:28:39.074Z,13.89
2022-10-11T06:31:09.109Z,13.81
2022-10-11T06:33:37.678Z,13.90
2022-10-11T06:36:08.493Z,13.80
2022-10-11T06:38:39.816Z,13.83
2022-10-11T06:41:14.686Z,13.90
2022-10-11T06:43:42.634Z,13.87
2022-10-11T06:46:12.783Z,13.87
2022-10-11T06:48:41.681Z,13.92
2022-10-11T06:51:09.628Z,13.95
2022-10-11T06:53:38.018Z,14.07
2022-10-11T06:56:08.483Z,14.05
2022-10-11T06:58:37.122Z,14.04
2022-10-11T07:01:06.745Z,14.16
2022-10-11T07:03:36.190Z,14.09
2022-10-11T07:06:05.467Z,14.08
2022-10-11T07:08:34.393Z,14.15
2022-10-11T07:11:02.687Z,14.30
2022-10-11T07:13:30.873Z,14.29
2022-10-11T07:16:01.203Z,14.35
2022-10-11T07:18:29.388Z,14.43
2022-10-11T07:21:02.944Z,14.37
2022-10-11T07:23:31.049Z,14.44
2022-10-11T07:26:01.322Z,14.44
2022-10-11T07:28:30.528Z,14.34
2022-10-11T07:30:59.577Z,14.50
2022-10-11T07:33:29.189Z,14.45
2022-10-11T07:36:00.170Z,14.60
2022-10-11T07:38:28.298Z,14.63
2022-10-11T07:40:56.459Z,14.77
2022-10-11T07:43:24.968Z,14.84
2022-10-11T07:45:55.668Z,14.88
2022-10-11T07:48:24.053Z,14.94
2022-10-11T07:50:51.942Z,14.88
2022-10-11T07:53:21.475Z,14.86
2022-10-11T07:55:49.901Z,14.99
2022-10-11T07:58:17.872Z,14.92
2022-10-11T08:00:45.990Z,15.01
2022-10-11T08:03:14.072Z,15.05
2022-10-11T08:05:42.148Z,15.01
2022-10-11T08:08:10.349Z,15.01
2022-10-11T08:10:41.051Z,15.15
2022-10-11T08:13:09.011Z,15.16
2022-10-11T08:15:37.009Z,15.16
2022-10-11T08:18:05.435Z,15.26
2022-10-11T08:20:33.412Z,15.24
2022-10-11T08:23:01.773Z,15.34
2022-10-11T08:25:29.794Z,15.38
2022-10-11T08:27:59.228Z,15.47
2022-10-11T08:30:27.146Z,15.45
2022-10-11T08:32:55.054Z,15.52
2022-10-11T08:35:23.044Z,15.56
2022-10-11T08:37:52.387Z,15.56
2022-10-11T08:40:23.874Z,15.66
2022-10-11T08:42:59.202Z,15.56
2022-10-11T08:45:37.050Z,15.55
2022-10-11T08:48:13.868Z,15.53
2022-10-11T08:50:43.924Z,15.47
2022-10-11T08:53:20.882Z,15.66
2022-10-11T08:55:52.105Z,15.84
2022-10-11T08:58:24.345Z,15.85
2022-10-11T09:00:57.970Z,15.96
2022-10-11T09:03:34.405Z,15.98
2022-10-11T09:06:13.767Z,15.89
2022-10-11T09:08:57.579Z,15.96
2022-10-11T09:11:37.545Z,16.11
2022-10-11T09:14:31.377Z,16.32
2022-10-11T09:17:12.400Z,16.37
2022-10-11T09:20:19.357Z,16.41
2022-10-11T09:22:55.388Z,16.53
2022-10-11T09:25:26.514Z,16.45
2022-10-11T09:28:14.429Z,16.75
2022-10-11T09:30:48.814Z,16.91
2022-10-11T09:33:24.692Z,16.72
2022-10-11T09:35:53.702Z,16.66
2022-10-11T09:38:42.296Z,16.78
2022-10-11T09:41:17.882Z,16.83
2022-10-11T09:43:50.679Z,16.92
2022-10-11T09:46:24.873Z,17.08
2022-10-11T09:48:57.418Z,17.24
2022-10-11T09:51:28.592Z,17.27
2022-10-11T09:53:59.375Z,17.35
2022-10-11T09:56:30.399Z,17.49
2022-10-11T09:59:10.678Z,17.63
2022-10-11T10:01:40.916Z,17.71
2022-10-11T10:04:15.380Z,17.79
2022-10-11T10:06:43.729Z,18.06
2022-10-11T10:09:31.514Z,17.98
2022-10-11T10:11:59.579Z,17.91
2022-10-11T10:14:30.494Z,18.15
2022-10-11T10:17:04.502Z,18.20
2022-10-11T10:19:45.096Z,18.29
2022-10-11T10:22:20.016Z,18.27
2022-10-11T10:24:49.458Z,18.29
2022-10-11T10:27:21.402Z,18.56
2022-10-11T10:30:16.029Z,18.97
2022-10-11T10:32:52.358Z,19.34
2022-10-11T10:35:32.128Z,19.29
2022-10-11T10:38:09.756Z,19.63
2022-10-11T10:40:42.400Z,19.51
2022-10-11T10:43:16.658Z,20.15
2022-10-11T10:46:02.283Z,20.32
2022-10-11T10:49:18.799Z,20.98
2022-10-11T10:51:44.263Z,21.19
2022-10-11T10:54:24.025Z,21.61
2022-10-11T10:56:56.885Z,21.95
2022-10-11T10:59:47.312Z,21.94
2022-10-11T11:02:39.762Z,22.55
2022-10-11T11:05:18.903Z,22.04
2022-10-11T11:07:53.444Z,21.63
2022-10-11T11:10:24.179Z,21.32
2022-10-11T11:13:02.852Z,21.58
2022-10-11T11:15:38.515Z,21.38
2022-10-11T11:18:26.467Z,21.63
2022-10-11T11:21:09.949Z,21.55
2022-10-11T11:23:47.525Z,21.30
2022-10-11T11:26:24.835Z,21.03
2022-10-11T11:29:04.584Z,20.83
2022-10-11T11:31:56.056Z,20.75
2022-10-11T11:34:27.582Z,20.52
2022-10-11T11:36:59.181Z,20.54
2022-10-11T11:39:35.074Z,20.38
2022-10-11T11:42:08.913Z,20.22
2022-10-11T11:44:40.495Z,20.12
2022-10-11T11:47:17.999Z,20.12
2022-10-11T11:49:52.133Z,19.82
2022-10-11T11:52:28.046Z,19.71
2022-10-11T11:55:12.197Z,19.47
2022-10-11T11:58:37.019Z,19.53
2022-10-11T12:01:14.016Z,19.49
2022-10-11T12:03:45.551Z,19.52
2022-10-11T12:06:26.097Z,19.34
2022-10-11T12:09:03.799Z,19.17
2022-10-11T12:11:44.285Z,19.12
2022-10-11T12:14:27.643Z,19.07
2022-10-11T12:17:13.940Z,18.97
2022-10-11T12:19:44.486Z,19.05
2022-10-11T12:22:34.604Z,18.97
2022-10-11T12:25:24.959Z,19.03
2022-10-11T12:27:56.273Z,18.99
2022-10-11T12:30:53.692Z,19.00
2022-10-11T12:33:24.792Z,18.86
2022-10-11T12:36:02.665Z,18.85
2022-10-11T12:38:34.981Z,18.73
2022-10-11T12:41:36.264Z,18.68
2022-10-11T12:44:26.290Z,18.65
2022-10-11T12:47:20.097Z,18.64
2022-10-11T12:50:04.776Z,18.53
2022-10-11T12:52:40.998Z,18.30
2022-10-11T12:55:31.244Z,18.25
2022-10-11T12:58:27.176Z,18.25
2022-10-11T13:01:21.666Z,18.28
2022-10-11T13:03:53.267Z,18.14
2022-10-11T13:06:25.508Z,17.97
2022-10-11T13:08:57.727Z,17.95
2022-10-11T13:11:30.835Z,17.96
2022-10-11T13:14:01.983Z,17.90
2022-10-11T13:16:47.040Z,17.89
2022-10-11T13:19:16.533Z,17.99
2022-10-11T13:21:44.681Z,17.97
2022-10-11T13:24:15.070Z,17.97
2022-10-11T13:26:45.318Z,17.91
2022-10-11T13:29:18.194Z,17.86
2022-10-11T13:31:49.414Z,17.89
2022-10-11T13:34:23.078Z,17.86
2022-10-11T13:36:57.219Z,17.89
2022-10-11T13:39:31.273Z,17.87
2022-10-11T13:42:01.276Z,17.84
2022-10-11T13:44:29.699Z,17.87
2022-10-11T13:46:59.252Z,17.67
2022-10-11T13:49:31.530Z,17.81
2022-10-11T13:52:01.106Z,17.58
2022-10-11T13:55:00.348Z,17.55
2022-10-11T13:57:37.444Z,17.49
2022-10-11T14:00:10.912Z,17.57
2022-10-11T14:02:40.835Z,17.45
2022-10-11T14:05:09.005Z,17.49
2022-10-11T14:07:39.598Z,17.49
2022-10-11T14:10:08.186Z,17.47
2022-10-11T14:12:40.599Z,17.38
2022-10-11T14:15:28.737Z,17.27
2022-10-11T14:17:59.230Z,17.24
2022-10-11T14:20:36.115Z,17.21
2022-10-11T14:23:04.265Z,17.26
2022-10-11T14:25:32.613Z,17.16
2022-10-11T14:28:00.834Z,17.22
2022-10-11T14:30:31.613Z,17.11
2022-10-11T14:33:04.004Z,17.02
2022-10-11T14:35:33.856Z,16.87
2022-10-11T14:38:01.899Z,16.90
2022-10-11T14:40:32.144Z,16.88
2022-10-11T14:43:00.297Z,16.74
2022-10-11T14:45:28.379Z,16.70
2022-10-11T14:47:57.041Z,16.69
2022-10-11T14:50:39.171Z,16.45
2022-10-11T14:53:08.403Z,16.45
2022-10-11T14:55:37.601Z,16.48
2022-10-11T14:58:06.849Z,16.46
2022-10-11T15:00:36.382Z,16.45
2022-10-11T15:03:07.150Z,16.34
2022-10-11T15:05:37.737Z,16.41
2022-10-11T15:08:06.835Z,16.39
2022-10-11T15:10:37.999Z,16.24
2022-10-11T15:13:08.162Z,16.08
2022-10-11T15:15:40.842Z,16.06
2022-10-11T15:18:13.276Z,15.94
2022-10-11T15:20:45.249Z,16.01
2022-10-11T15:23:13.760Z,15.97
2022-10-11T15:25:42.495Z,15.94
2022-10-11T15:28:21.244Z,15.83
2022-10-11T15:30:49.271Z,15.83
2022-10-11T15:33:17.228Z,15.84
2022-10-11T15:35:47.089Z,15.76
2022-10-11T15:38:18.610Z,15.69
2022-10-11T15:40:47.379Z,15.73
2022-10-11T15:43:15.767Z,15.75
2022-10-11T15:45:44.133Z,15.73
2022-10-11T15:48:15.977Z,15.78
2022-10-11T15:50:44.366Z,15.72
2022-10-11T15:53:15.607Z,15.50
2022-10-11T15:55:45.452Z,15.57
2022-10-11T15:58:15.627Z,15.54
2022-10-11T16:00:44.013Z,15.50
2022-10-11T16:03:13.757Z,15.50
2022-10-11T16:05:42.992Z,15.42
2022-10-11T16:08:11.576Z,15.28
2022-10-11T16:10:41.534Z,15.30
2022-10-11T16:13:09.956Z,15.34
2022-10-11T16:15:42.383Z,15.33
2022-10-11T16:18:12.809Z,15.28
2022-10-11T16:20:41.658Z,15.38
2022-10-11T16:23:09.866Z,15.31
2022-10-11T16:25:38.695Z,15.31
2022-10-11T16:28:09.192Z,15.32
2022-10-11T16:30:40.724Z,15.35
2022-10-11T16:33:08.741Z,15.37
2022-10-11T16:35:36.661Z,15.27
2022-10-11T16:38:04.637Z,15.15
2022-10-11T16:40:34.353Z,15.24
2022-10-11T16:43:07.902Z,15.12
2022-10-11T16:45:38.203Z,15.10
2022-10-11T16:48:07.609Z,15.11
2022-10-11T16:50:39.309Z,15.00
2022-10-11T16:53:07.799Z,15.05
2022-10-11T16:55:35.749Z,15.06
2022-10-11T16:58:03.806Z,15.01
2022-10-11T17:00:31.872Z,14.88
2022-10-11T17:03:01.565Z,14.94
2022-10-11T17:05:29.596Z,14.96
2022-10-11T17:07:57.687Z,14.98
2022-10-11T17:10:39.404Z,15.00
2022-10-11T17:13:07.777Z,14.98
2022-10-11T17:15:36.207Z,14.97
2022-10-11T17:18:05.658Z,15.00
2022-10-11T17:20:33.839Z,15.03
2022-10-11T17:23:01.865Z,15.01
2022-10-11T17:25:30.145Z,15.05
2022-10-11T17:27:58.697Z,15.02
2022-10-11T17:30:26.716Z,15.00
2022-10-11T17:32:55.253Z,15.04
2022-10-11T17:35:24.613Z,15.09
2022-10-11T17:37:52.529Z,15.10
2022-10-11T17:40:20.563Z,15.11
2022-10-11T17:42:48.684Z,15.06
2022-10-11T17:45:18.973Z,15.09
2022-10-11T17:47:47.537Z,15.16
2022-10-11T17:50:15.982Z,15.17
2022-10-11T17:52:46.087Z,15.15
2022-10-11T17:55:15.146Z,15.11
2022-10-11T17:57:43.338Z,15.18
2022-10-11T18:00:12.578Z,15.09
2022-10-11T18:02:42.805Z,15.15
2022-10-11T18:05:14.337Z,15.14
2022-10-11T18:07:42.266Z,15.12
2022-10-11T18:10:12.400Z,15.04
2022-10-11T18:12:40.464Z,14.95
2022-10-11T18:15:09.956Z,14.99
2022-10-11T18:17:38.672Z,14.96
2022-10-11T18:20:07.438Z,14.95
2022-10-11T18:22:35.389Z,14.80
2022-10-11T18:25:03.410Z,14.94
2022-10-11T18:27:32.882Z,14.90
2022-10-11T18:30:00.902Z,14.76
2022-10-11T18:32:28.863Z,14.77
2022-10-11T18:34:58.694Z,14.74
2022-10-11T18:37:26.860Z,14.68
2022-10-11T18:39:55.246Z,14.67
2022-10-11T18:42:25.749Z,14.63
2022-10-11T18:44:58.281Z,14.60
2022-10-11T18:47:29.453Z,14.48
2022-10-11T18:49:57.401Z,14.44
2022-10-11T18:52:25.371Z,14.42
2022-10-11T18:54:53.501Z,14.36
2022-10-11T18:57:23.635Z,14.30
2022-10-11T18:59:51.674Z,14.28
2022-10-11T19:02:21.101Z,14.37
2022-10-11T19:04:52.728Z,14.30
2022-10-11T19:07:20.937Z,14.22
2022-10-11T19:09:57.450Z,14.14
2022-10-11T19:12:29.863Z,14.15
2022-10-11T19:14:58.176Z,14.05
2022-10-11T19:17:31.949Z,14.19
2022-10-11T19:20:36.522Z,14.06
2022-10-11T19:23:05.010Z,14.18
2022-10-11T19:25:41.240Z,14.09
2022-10-11T19:28:16.474Z,14.08
2022-10-11T19:30:50.075Z,14.06
2022-10-11T19:33:21.290Z,14.10
2022-10-11T19:36:02.558Z,13.99
2022-10-11T19:38:31.275Z,14.09
2022-10-11T19:41:04.047Z,14.01
2022-10-11T19:43:39.414Z,14.02
2022-10-11T19:46:27.341Z,14.07
2022-10-11T19:49:06.763Z,14.02
2022-10-11T19:51:47.570Z,14.08
2022-10-11T19:54:22.878Z,13.94
2022-10-11T19:56:55.244Z,14.04
2022-10-11T19:59:26.731Z,14.07
2022-10-11T20:01:58.697Z,14.11
2022-10-11T20:04:51.567Z,14.08
2022-10-11T20:07:24.325Z,14.12
2022-10-11T20:09:55.399Z,14.12
2022-10-11T20:12:23.603Z,14.03
2022-10-11T20:14:55.507Z,14.00
2022-10-11T20:17:46.579Z,14.07
2022-10-11T20:20:16.650Z,14.10
2022-10-11T20:22:44.874Z,14.10
2022-10-11T20:25:13.097Z,14.09
2022-10-11T20:27:43.410Z,14.13
2022-10-11T20:30:14.028Z,14.12
2022-10-11T20:32:42.183Z,14.06
2022-10-11T20:35:10.573Z,14.16
2022-10-11T20:37:39.953Z,14.11
2022-10-11T20:40:08.908Z,14.16
2022-10-11T20:42:36.898Z,14.18
2022-10-11T20:45:05.416Z,14.18
2022-10-11T20:47:33.829Z,14.07
2022-10-11T20:50:02.004Z,14.18
2022-10-11T20:52:32.251Z,14.19
2022-10-11T20:55:01.947Z,14.16
2022-10-11T20:57:29.926Z,14.18
2022-10-11T20:59:58.050Z,14.18
2022-10-11T21:02:25.980Z,14.12
2022-10-11T21:04:54.281Z,14.11
2022-10-11T21:07:22.728Z,14.13
2022-10-11T21:09:50.704Z,14.10
2022-10-11T21:12:19.990Z,14.05
2022-10-11T21:14:47.975Z,14.06
2022-10-11T21:17:15.943Z,14.05
2022-10-11T21:19:43.885Z,14.10
2022-10-11T21:22:12.027Z,14.06
2022-10-11T21:24:39.981Z,14.02
2022-10-11T21:27:07.935Z,14.04
2022-10-11T21:29:37.444Z,13.93
2022-10-11T21:32:05.384Z,14.03
2022-10-11T21:34:33.577Z,14.00
2022-10-11T21:37:01.542Z,14.02
2022-10-11T21:39:29.627Z,13.97
2022-10-11T21:41:57.630Z,13.96
2022-10-11T21:44:25.642Z,13.92
2022-10-11T21:47:06.476Z,13.91
2022-10-11T21:49:34.875Z,13.93
2022-10-11T21:52:03.127Z,14.00
2022-10-11T21:54:31.221Z,13.93
2022-10-11T21:56:59.528Z,13.98
2022-10-11T21:59:27.472Z,14.01
2022-10-11T22:02:01.502Z,13.95
2022-10-11T22:04:29.915Z,14.05
2022-10-11T22:06:57.796Z,14.01
2022-10-11T22:09:25.761Z,14.13
2022-10-11T22:11:53.745Z,14.05
2022-10-11T22:14:22.314Z,14.06
2022-10-11T22:16:50.274Z,14.08
2022-10-11T22:19:19.557Z,14.05
2022-10-11T22:21:47.569Z,13.93
2022-10-11T22:24:16.705Z,13.96
2022-10-11T22:26:44.703Z,13.91
2022-10-11T22:29:12.653Z,13.92
2022-10-11T22:31:40.717Z,13.88
2022-10-11T22:34:08.828Z,13.81
2022-10-11T22:36:38.933Z,13.79
2022-10-11T22:39:08.165Z,13.74
2022-10-11T22:41:36.502Z,13.56
2022-10-11T22:44:04.482Z,13.61
2022-10-11T22:46:33.182Z,13.52
2022-10-11T22:49:01.176Z,13.44
2022-10-11T22:51:29.142Z,13.50
2022-10-11T22:53:58.417Z,13.48
2022-10-11T22:56:26.474Z,13.43
2022-10-11T22:58:54.457Z,13.52
2022-10-11T23:01:22.445Z,13.49
2022-10-11T23:03:50.781Z,13.43
2022-10-11T23:06:19.028Z,13.47
2022-10-11T23:08:46.954Z,13.37
2022-10-11T23:11:16.657Z,13.36
2022-10-11T23:13:44.651Z,13.30
2022-10-11T23:16:13.829Z,13.36
2022-10-11T23:18:41.891Z,13.39
2022-10-11T23:21:10.256Z,13.35
2022-10-11T23:27:26.349Z,13.35
2022-10-11T23:29:54.281Z,13.35
2022-10-11T23:32:22.247Z,13.43
2022-10-11T23:34:51.416Z,13.41
2022-10-11T23:37:19.469Z,13.45
2022-10-11T23:39:47.416Z,13.42
2022-10-11T23:42:15.336Z,13.35
2022-10-11T23:44:44.625Z,13.36
2022-10-11T23:47:12.573Z,13.45
2022-10-11T23:49:40.524Z,13.37
2022-10-11T23:52:08.443Z,13.35
2022-10-11T23:54:36.405Z,13.31
2022-10-11T23:57:04.447Z,13.34
2022-10-11T23:59:32.332Z,13.36
